Five Points, California
Current Conditions -  °F | °C
As of 5:56 PM on Monday 20 Oct 2014 (Local Time) from KNLC Reporting Station
Broken Clouds Broken Clouds  
Wind Chill: 77°   Ceiling: 26000
Heat Index: 78°   Visibility: 10mi
Dew Point: 50°   Wind: 13mph
Humidity: 39%   Direction: 360°N
Pressure: 29.88"   Gusts: NA
Location:  36.42°N, 120.1°W
Report Text: KNLC 210056Z 36011KT 10SM FEW050 BKN260 25/10 A2988 RMK AO2 SLP118 RH/38 T02500100 $
Loading
Personal Weather Stations






























Interactive Weather Map
Tropical Storm Tracking
New forecast layout! Learn more

10-Day Weather Forecast

Advertisements
Track Severe Weather on mobile